Time;durP1;ratioP1;P1;durP2;ratioP2;P2;SDS_P1;SDS_P2;PMS_P1;PMS_P2;Temp;Humidity;BMP_temperature;BMP_pressure;BME280_temperature;BME280_humidity;BME280_pressure;Samples;Min_cycle;Max_cycle;Signal;HPM_P1;HPM_P2
2023/08/12 00:00:50;;;;;;;;;;;;;;;25.79;55.43;101694.66;5072761;28;19916;-85
2023/08/12 00:03:16;;;;;;;;;;;;;;;25.77;55.51;101693.75;5073051;28;19912;-85
2023/08/12 00:05:42;;;;;;;;;;;;;;;25.75;55.38;101688.41;5096540;28;20383;-85
2023/08/12 00:08:08;;;;;;;;;;;;;;;25.77;55.66;101686.63;5096465;28;19955;-84
2023/08/12 00:10:33;;;;;;;;;;;;;;;25.74;55.26;101678.59;5103306;28;20281;-85
2023/08/12 00:12:59;;;;;;;;;;;;;;;25.76;55.39;101675.91;5095436;28;20377;-85
2023/08/12 00:15:24;;;;;;;;;;;;;;;25.75;55.24;101684.81;5089473;28;20028;-85
2023/08/12 00:17:50;;;;;;;;;;;;;;;25.71;55.51;101683.03;5103156;28;20005;-84
2023/08/12 00:20:15;;;;;;;;;;;;;;;25.76;55.25;101684.84;5093041;28;20301;-85
2023/08/12 00:22:41;;;;;;;;;;;;;;;25.76;55.53;101679.50;5089834;28;20441;-84
2023/08/12 00:25:06;;;;;;;;;;;;;;;25.74;55.33;101683.94;5094857;28;19916;-85
2023/08/12 00:27:32;;;;;;;;;;;;;;;25.75;55.09;101683.03;5089544;28;20297;-85
2023/08/12 00:29:57;;;;;;;;;;;;;;;25.75;55.30;101685.72;5104252;28;20010;-86
2023/08/12 00:32:23;;;;;;;;;;;;;;;25.74;55.24;101678.59;5096410;28;20366;-85
2023/08/12 00:34:48;;;;;;;;;;;;;;;25.72;55.15;101684.81;5095702;28;20488;-84
2023/08/12 00:37:13;;;;;;;;;;;;;;;25.70;55.33;101674.09;5096374;28;19955;-84
2023/08/12 00:39:39;;;;;;;;;;;;;;;25.69;55.30;101674.97;5102092;28;19927;-85
2023/08/12 00:42:04;;;;;;;;;;;;;;;25.69;55.25;101677.66;5103060;28;19916;-85
2023/08/12 00:44:30;;;;;;;;;;;;;;;25.70;55.56;101679.47;5106061;28;20026;-84
2023/08/12 00:46:55;;;;;;;;;;;;;;;25.70;55.11;101678.56;5083144;28;20360;-86
2023/08/12 00:49:21;;;;;;;;;;;;;;;25.69;55.11;101677.66;5092706;28;19912;-85
2023/08/12 00:51:47;;;;;;;;;;;;;;;25.71;55.50;101680.34;5093165;28;19919;-85
2023/08/12 00:54:15;;;;;;;;;;;;;;;25.71;55.17;101669.66;5103305;28;19955;-86
2023/08/12 00:56:41;;;;;;;;;;;;;;;25.69;55.21;101674.97;5096591;28;20454;-85
2023/08/12 00:59:07;;;;;;;;;;;;;;;25.70;54.93;101682.13;5102849;28;19916;-86
2023/08/12 01:01:32;;;;;;;;;;;;;;;25.67;55.35;101670.50;5087734;28;20011;-86
2023/08/12 01:03:58;;;;;;;;;;;;;;;25.71;54.93;101675.88;5114083;28;19912;-85
2023/08/12 01:06:23;;;;;;;;;;;;;;;25.66;55.06;101674.09;5101527;28;19919;-85
2023/08/12 01:08:49;;;;;;;;;;;;;;;25.68;54.92;101666.97;5106198;28;20602;-85
2023/08/12 01:11:21;;;;;;;;;;;;;;;25.66;55.38;101668.72;5093077;28;19923;-86
2023/08/12 01:13:48;;;;;;;;;;;;;;;25.66;54.98;101672.28;5092882;28;19912;-85
2023/08/12 01:16:14;;;;;;;;;;;;;;;25.66;54.86;101671.41;5104806;28;19920;-85
2023/08/12 01:18:39;;;;;;;;;;;;;;;25.66;55.29;101666.94;5104329;28;19931;-85
2023/08/12 01:21:05;;;;;;;;;;;;;;;25.66;55.19;101666.94;5093993;28;19915;-85
2023/08/12 01:23:30;;;;;;;;;;;;;;;25.62;55.13;101667.81;5092751;28;20404;-85
2023/08/12 01:25:56;;;;;;;;;;;;;;;25.60;55.01;101666.91;5109590;28;20384;-85
2023/08/12 01:28:21;;;;;;;;;;;;;;;25.60;55.25;101670.47;5093823;28;20289;-84
2023/08/12 01:30:59;;;;;;;;;;;;;;;25.62;55.28;101669.59;5093582;28;20312;-85
2023/08/12 01:33:29;;;;;;;;;;;;;;;25.57;55.34;101673.13;5097100;28;19920;-85
2023/08/12 01:35:55;;;;;;;;;;;;;;;25.54;54.93;101666.88;5104838;28;20385;-86
2023/08/12 01:38:21;;;;;;;;;;;;;;;25.58;54.86;101666.88;5092367;28;19912;-86
2023/08/12 01:40:46;;;;;;;;;;;;;;;25.58;54.88;101663.31;5105740;28;20472;-85
2023/08/12 01:43:12;;;;;;;;;;;;;;;25.54;55.02;101666.88;5092316;28;20434;-86
2023/08/12 01:45:37;;;;;;;;;;;;;;;25.54;55.01;101667.75;5101684;28;20413;-86
2023/08/12 01:48:03;;;;;;;;;;;;;;;25.52;54.77;101661.50;5102034;28;20388;-85
2023/08/12 01:50:28;;;;;;;;;;;;;;;25.52;55.01;101668.63;5095164;28;19934;-85
2023/08/12 01:52:54;;;;;;;;;;;;;;;25.49;55.04;101674.88;5085239;28;19916;-84
2023/08/12 01:55:19;;;;;;;;;;;;;;;25.55;54.87;101671.34;5099419;28;19934;-85
2023/08/12 01:57:45;;;;;;;;;;;;;;;25.52;54.96;101663.28;5103752;28;20324;-85
2023/08/12 02:00:11;;;;;;;;;;;;;;;25.55;54.54;101671.34;5094508;28;20451;-85
2023/08/12 02:02:46;;;;;;;;;;;;;;;25.58;54.94;101672.22;5099241;28;19918;-83
2023/08/12 02:05:12;;;;;;;;;;;;;;;25.57;54.90;101666.91;5110754;28;20028;-85
2023/08/12 02:07:41;;;;;;;;;;;;;;;25.55;54.81;101674.91;5065395;28;19912;-85
2023/08/12 02:10:23;;;;;;;;;;;;;;;25.50;54.78;101676.63;5098342;28;19927;-86
2023/08/12 02:12:48;;;;;;;;;;;;;;;25.50;55.00;101671.28;5051019;28;20408;-86
2023/08/12 02:15:32;;;;;;;;;;;;;;;25.53;54.80;101678.47;5009014;28;20494;-86
2023/08/12 02:21:34;;;;;;;;;;;;;;;25.52;54.61;101676.66;5043664;28;19928;-84
2023/08/12 02:23:59;;;;;;;;;;;;;;;25.48;54.60;101678.41;5030294;28;20283;-86
2023/08/12 02:32:21;;;;;;;;;;;;;;;25.46;54.26;101687.31;4990736;28;20394;-86
2023/08/12 02:34:46;;;;;;;;;;;;;;;25.47;54.87;101671.28;5022171;28;19921;-86
2023/08/12 02:37:12;;;;;;;;;;;;;;;25.47;54.26;101673.97;5030360;28;20365;-85
2023/08/12 02:39:38;;;;;;;;;;;;;;;25.47;54.78;101673.97;5030474;28;19921;-86
2023/08/12 02:42:03;;;;;;;;;;;;;;;25.49;54.47;101676.66;5033378;28;19921;-86
2023/08/12 02:44:29;;;;;;;;;;;;;;;25.48;54.64;101677.50;5032657;28;19944;-85
2023/08/12 02:46:54;;;;;;;;;;;;;;;25.48;54.75;101673.06;5048857;28;20019;-86
2023/08/12 02:49:19;;;;;;;;;;;;;;;25.48;54.54;101683.75;5030496;28;20314;-85
2023/08/12 02:51:45;;;;;;;;;;;;;;;25.49;54.58;101690.03;5043704;28;20428;-85
2023/08/12 02:54:10;;;;;;;;;;;;;;;25.46;54.70;101689.97;5014924;28;20003;-86
2023/08/12 02:56:36;;;;;;;;;;;;;;;25.45;54.48;101685.53;5035019;28;20382;-85
2023/08/12 02:59:04;;;;;;;;;;;;;;;25.48;54.44;101693.56;5029768;28;20205;-86
2023/08/12 03:01:29;;;;;;;;;;;;;;;25.47;54.62;101691.78;5033247;28;19978;-85
2023/08/12 03:03:55;;;;;;;;;;;;;;;25.46;54.49;101693.53;5075625;28;20367;-86
2023/08/12 03:06:20;;;;;;;;;;;;;;;25.45;54.64;101694.44;5076349;28;19916;-86
2023/08/12 03:08:46;;;;;;;;;;;;;;;25.47;54.73;101689.13;5073881;28;20006;-86
2023/08/12 03:11:11;;;;;;;;;;;;;;;25.42;54.28;101691.75;5091789;28;19925;-85
2023/08/12 03:13:37;;;;;;;;;;;;;;;25.41;54.80;101700.66;5098989;28;19912;-85
2023/08/12 03:16:02;;;;;;;;;;;;;;;25.44;54.54;101695.31;5096308;28;19920;-85
2023/08/12 03:18:28;;;;;;;;;;;;;;;25.41;54.62;101689.94;5111228;28;20456;-85
2023/08/12 03:20:53;;;;;;;;;;;;;;;25.46;54.39;101700.69;5099827;28;19912;-86
2023/08/12 03:23:18;;;;;;;;;;;;;;;25.43;54.30;101698.88;5095728;28;19919;-86
2023/08/12 03:25:46;;;;;;;;;;;;;;;25.45;54.56;101706.94;5102228;28;20726;-86
2023/08/12 03:28:11;;;;;;;;;;;;;;;25.43;54.15;101706.03;5091840;28;19919;-86
2023/08/12 03:30:37;;;;;;;;;;;;;;;25.39;54.43;101700.63;5094028;28;19912;-84
2023/08/12 03:33:02;;;;;;;;;;;;;;;25.42;54.48;101704.22;5090384;28;20400;-84
2023/08/12 03:35:28;;;;;;;;;;;;;;;25.36;54.34;101710.44;5104119;28;20358;-85
2023/08/12 03:37:54;;;;;;;;;;;;;;;25.38;54.47;101709.56;5098860;28;20441;-85
2023/08/12 03:40:23;;;;;;;;;;;;;;;25.39;54.50;101707.75;5110612;28;20377;-85
2023/08/12 03:42:49;;;;;;;;;;;;;;;25.38;54.29;101706.88;5100040;28;20007;-85
2023/08/12 03:45:43;;;;;;;;;;;;;;;25.40;54.44;101712.25;5080171;28;20015;-87
2023/08/12 03:48:25;;;;;;;;;;;;;;;25.42;54.49;101713.16;5080536;28;19915;-85
2023/08/12 03:54:13;;;;;;;;;;;;;;;25.38;54.23;101714.91;5101978;28;20407;-86
2023/08/12 03:57:05;;;;;;;;;;;;;;;25.36;54.60;101713.09;5110622;28;20414;-85
2023/08/12 03:59:31;;;;;;;;;;;;;;;25.38;54.50;101717.56;5092481;28;19954;-86
2023/08/12 04:01:57;;;;;;;;;;;;;;;25.37;54.40;101715.75;5072924;28;19951;-86
2023/08/12 04:04:22;;;;;;;;;;;;;;;25.37;54.45;101718.44;5089785;28;19916;-86
2023/08/12 04:06:51;;;;;;;;;;;;;;;25.40;54.40;101720.28;5092639;28;20304;-85
2023/08/12 04:09:17;;;;;;;;;;;;;;;25.37;54.42;101717.56;5114324;28;19993;-86
2023/08/12 04:11:43;;;;;;;;;;;;;;;25.33;54.42;101716.63;5114173;28;19995;-86
2023/08/12 04:14:09;;;;;;;;;;;;;;;25.32;54.69;101720.19;5113285;28;20441;-87
2023/08/12 04:16:34;;;;;;;;;;;;;;;25.34;54.41;101718.44;5109638;27;20424;-87
2023/08/12 04:18:59;;;;;;;;;;;;;;;25.34;54.49;101717.53;5112383;28;20019;-86
2023/08/12 04:21:25;;;;;;;;;;;;;;;25.34;54.51;101710.41;5125356;27;19918;-86
2023/08/12 04:23:50;;;;;;;;;;;;;;;25.33;54.59;101719.28;5120510;27;20513;-86
2023/08/12 04:26:16;;;;;;;;;;;;;;;25.33;54.64;101711.28;5130881;27;19991;-85
2023/08/12 04:28:41;;;;;;;;;;;;;;;25.35;54.49;101719.31;5115496;28;20385;-84
2023/08/12 04:31:09;;;;;;;;;;;;;;;25.33;54.49;101721.09;5116881;28;20441;-86
2023/08/12 04:33:35;;;;;;;;;;;;;;;25.34;54.49;101720.22;5116869;27;19927;-86
2023/08/12 04:36:00;;;;;;;;;;;;;;;25.32;54.64;101720.19;5116621;27;19920;-85
2023/08/12 04:38:26;;;;;;;;;;;;;;;25.33;54.53;101721.97;5114965;27;20369;-84
2023/08/12 04:40:52;;;;;;;;;;;;;;;25.34;54.74;101720.22;5120105;27;19922;-82
2023/08/12 04:43:18;;;;;;;;;;;;;;;25.32;54.33;101720.19;5134138;27;19915;-83
2023/08/12 04:45:46;;;;;;;;;;;;;;;25.32;54.47;101721.97;5132617;27;20007;-85
2023/08/12 04:48:15;;;;;;;;;;;;;;;25.30;54.37;101721.97;5128964;27;19955;-84
2023/08/12 04:50:41;;;;;;;;;;;;;;;25.31;55.01;101721.06;5108833;27;19919;-85
2023/08/12 04:53:07;;;;;;;;;;;;;;;25.32;54.41;101724.66;5092839;27;19951;-84
2023/08/12 04:55:33;;;;;;;;;;;;;;;25.32;54.58;101724.66;5126658;27;19966;-84
2023/08/12 04:57:58;;;;;;;;;;;;;;;25.33;54.37;101726.44;5109074;27;20420;-83
2023/08/12 05:00:24;;;;;;;;;;;;;;;25.34;54.51;101728.25;5104099;27;20428;-84
2023/08/12 05:02:49;;;;;;;;;;;;;;;25.30;54.87;101729.09;5130726;27;19919;-84
2023/08/12 05:05:14;;;;;;;;;;;;;;;25.32;54.65;101727.34;5133139;27;19916;-83
2023/08/12 05:07:41;;;;;;;;;;;;;;;25.31;54.59;101730.88;5120775;27;19923;-86
2023/08/12 05:10:07;;;;;;;;;;;;;;;25.26;54.87;101729.94;5121796;27;19920;-85
2023/08/12 05:12:32;;;;;;;;;;;;;;;25.25;54.97;101731.72;5112274;27;19916;-85
2023/08/12 05:14:58;;;;;;;;;;;;;;;25.26;54.89;101737.97;5111180;28;20006;-84
2023/08/12 05:17:23;;;;;;;;;;;;;;;25.23;54.95;101735.25;5124538;27;19915;-84
2023/08/12 05:19:48;;;;;;;;;;;;;;;25.22;54.98;101733.47;5126519;27;19923;-84
2023/08/12 05:22:14;;;;;;;;;;;;;;;25.22;54.46;101730.81;5128700;27;19920;-83
2023/08/12 05:24:40;;;;;;;;;;;;;;;25.16;54.19;101734.28;5124437;27;20485;-85
2023/08/12 05:27:06;;;;;;;;;;;;;;;25.22;54.19;101738.81;5090084;27;19916;-84
2023/08/12 05:29:31;;;;;;;;;;;;;;;25.14;54.19;101736.91;5123079;27;20266;-83
2023/08/12 05:31:57;;;;;;;;;;;;;;;25.19;54.19;101745.91;5102585;27;20366;-85
2023/08/12 05:34:22;;;;;;;;;;;;;;;25.17;54.25;101728.94;5131237;27;19915;-86
2023/08/12 05:36:48;;;;;;;;;;;;;;;25.17;54.28;101738.75;5120694;27;19942;-84
2023/08/12 05:39:15;;;;;;;;;;;;;;;25.19;54.16;101745.91;5116545;27;19916;-83
2023/08/12 05:41:40;;;;;;;;;;;;;;;25.19;54.11;101743.22;5117200;27;19924;-83
2023/08/12 05:44:06;;;;;;;;;;;;;;;25.16;54.16;101743.19;5119737;27;20056;-84
2023/08/12 05:46:32;;;;;;;;;;;;;;;25.17;54.36;101744.97;5119671;27;19972;-84
2023/08/12 05:48:57;;;;;;;;;;;;;;;25.18;54.11;101741.41;5125355;27;19915;-84
2023/08/12 05:51:23;;;;;;;;;;;;;;;25.22;53.81;101739.72;5129189;27;19948;-85
2023/08/12 05:53:48;;;;;;;;;;;;;;;25.17;53.86;101744.09;5124731;27;20449;-85
2023/08/12 05:56:13;;;;;;;;;;;;;;;25.21;54.04;101740.59;5126769;27;19919;-86
2023/08/12 05:58:39;;;;;;;;;;;;;;;25.23;54.06;101746.88;5125331;27;19916;-85
2023/08/12 06:01:04;;;;;;;;;;;;;;;25.21;53.70;101745.03;5120039;27;19920;-84
2023/08/12 06:03:30;;;;;;;;;;;;;;;25.19;54.01;101740.56;5092589;27;19924;-85
2023/08/12 06:05:55;;;;;;;;;;;;;;;25.21;53.89;101747.72;5118223;27;20404;-84
2023/08/12 06:08:20;;;;;;;;;;;;;;;25.15;53.92;101743.19;5125486;27;19919;-84
2023/08/12 06:10:46;;;;;;;;;;;;;;;25.18;53.67;101737.84;5112509;27;20345;-84
2023/08/12 06:13:11;;;;;;;;;;;;;;;25.21;53.76;101745.03;5124034;27;19916;-83
2023/08/12 06:15:37;;;;;;;;;;;;;;;25.22;53.95;101744.16;5120576;27;20312;-83
2023/08/12 06:18:02;;;;;;;;;;;;;;;25.14;53.75;101744.06;5120357;27;19967;-84
2023/08/12 06:20:28;;;;;;;;;;;;;;;25.16;53.91;101751.19;5115358;27;19915;-83
2023/08/12 06:22:53;;;;;;;;;;;;;;;25.14;53.95;101746.72;5115727;27;19915;-86
2023/08/12 06:25:19;;;;;;;;;;;;;;;25.17;53.94;101749.44;5125725;27;19915;-86
2023/08/12 06:27:44;;;;;;;;;;;;;;;25.19;53.85;101740.56;5101036;27;19927;-85
2023/08/12 06:30:10;;;;;;;;;;;;;;;25.17;53.76;101736.06;5126972;27;20389;-85
2023/08/12 06:32:36;;;;;;;;;;;;;;;25.17;54.06;101738.75;5128471;27;19924;-86
2023/08/12 06:35:01;;;;;;;;;;;;;;;25.19;53.64;101745.91;5116282;27;19968;-84
2023/08/12 06:37:27;;;;;;;;;;;;;;;25.14;53.99;101739.59;5125889;27;19923;-86
2023/08/12 06:39:52;;;;;;;;;;;;;;;25.15;53.91;101743.19;5118509;27;19919;-87
2023/08/12 06:42:18;;;;;;;;;;;;;;;25.06;53.72;101719.94;5116856;27;19938;-84
2023/08/12 06:44:44;;;;;;;;;;;;;;;25.14;53.93;101738.69;5125111;27;19920;-83
2023/08/12 06:47:13;;;;;;;;;;;;;;;25.12;53.93;101736.00;5128392;27;20448;-84
2023/08/12 06:49:38;;;;;;;;;;;;;;;25.11;53.80;101742.25;5125576;27;20398;-88
2023/08/12 06:52:04;;;;;;;;;;;;;;;25.09;53.80;101738.66;5121040;27;19915;-84
2023/08/12 06:54:32;;;;;;;;;;;;;;;25.17;53.75;101742.31;5124157;27;19920;-84
2023/08/12 06:56:57;;;;;;;;;;;;;;;25.16;53.66;101739.63;5124709;27;19916;-85
2023/08/12 06:59:31;;;;;;;;;;;;;;;25.12;53.88;101736.00;5086520;28;19935;-86
2023/08/12 07:01:57;;;;;;;;;;;;;;;25.13;53.80;101744.94;5093892;28;19918;-86
2023/08/12 07:04:25;;;;;;;;;;;;;;;25.07;53.91;101735.09;5113047;27;19916;-86
2023/08/12 07:06:50;;;;;;;;;;;;;;;25.16;53.56;101736.94;5122090;27;19923;-85
2023/08/12 07:09:17;;;;;;;;;;;;;;;25.11;53.61;101739.56;5107207;28;19973;-86
2023/08/12 07:11:42;;;;;;;;;;;;;;;25.15;53.66;101737.84;5092168;28;19916;-85
2023/08/12 07:14:07;;;;;;;;;;;;;;;25.15;53.60;101729.81;5100905;28;19916;-84
2023/08/12 07:16:33;;;;;;;;;;;;;;;25.17;53.85;101738.75;5071582;28;19920;-84
2023/08/12 07:18:59;;;;;;;;;;;;;;;25.17;53.76;101734.28;5119301;27;19911;-85
2023/08/12 07:21:24;;;;;;;;;;;;;;;25.21;53.76;101742.34;5108188;27;19920;-88
2023/08/12 07:23:50;;;;;;;;;;;;;;;25.20;53.61;101736.13;5099729;28;19923;-85
2023/08/12 07:26:15;;;;;;;;;;;;;;;25.25;53.49;101733.50;5103737;28;19934;-85
2023/08/12 07:28:41;;;;;;;;;;;;;;;25.22;53.58;101733.47;5079160;28;19916;-86
2023/08/12 07:31:06;;;;;;;;;;;;;;;25.23;53.73;101737.91;5099105;28;19912;-84
2023/08/12 07:33:32;;;;;;;;;;;;;;;25.21;53.69;101729.00;5090372;28;19912;-85
2023/08/12 07:35:57;;;;;;;;;;;;;;;25.20;53.60;101736.13;5073417;28;20005;-84
2023/08/12 07:38:23;;;;;;;;;;;;;;;25.21;53.87;101729.91;5090630;28;19916;-83
2023/08/12 07:40:49;;;;;;;;;;;;;;;25.26;53.68;101738.84;5092790;28;19920;-85
2023/08/12 07:43:14;;;;;;;;;;;;;;;25.19;53.73;101727.19;5090232;28;19916;-83
2023/08/12 07:45:39;;;;;;;;;;;;;;;25.22;53.83;101726.34;5092697;27;19920;-84
2023/08/12 07:48:05;;;;;;;;;;;;;;;25.23;53.60;101728.16;5096356;28;20453;-83
2023/08/12 07:50:30;;;;;;;;;;;;;;;25.26;53.68;101724.59;5073950;28;20584;-83
2023/08/12 07:52:56;;;;;;;;;;;;;;;25.26;53.58;101725.50;5107432;27;19916;-85
2023/08/12 07:55:21;;;;;;;;;;;;;;;25.32;53.73;101728.22;5093549;28;19969;-84
2023/08/12 07:57:47;;;;;;;;;;;;;;;25.29;53.69;101729.97;5102284;28;19991;-83
2023/08/12 08:00:12;;;;;;;;;;;;;;;25.29;53.52;101719.25;5096419;28;19912;-84
2023/08/12 08:02:38;;;;;;;;;;;;;;;25.30;53.48;101727.31;5077980;28;20388;-83
2023/08/12 08:05:04;;;;;;;;;;;;;;;25.38;53.51;101725.59;5096336;28;19912;-84
2023/08/12 08:07:29;;;;;;;;;;;;;;;25.37;53.53;101713.09;5080733;28;19970;-85
2023/08/12 08:09:58;;;;;;;;;;;;;;;25.34;53.75;101723.78;5128238;27;19924;-82
2023/08/12 08:12:23;;;;;;;;;;;;;;;25.41;53.52;101721.16;5117791;27;19911;-84
2023/08/12 08:14:49;;;;;;;;;;;;;;;25.35;53.91;101724.66;5115765;27;19943;-83
2023/08/12 08:17:14;;;;;;;;;;;;;;;25.36;53.56;101724.69;5115276;27;19984;-84
2023/08/12 08:19:39;;;;;;;;;;;;;;;25.41;53.71;101718.47;5097839;28;20377;-84
2023/08/12 08:22:11;;;;;;;;;;;;;;;25.42;53.60;101725.59;5098670;28;20301;-83
2023/08/12 08:25:21;;;;;;;;;;;;;;;25.44;53.49;101722.06;5134777;27;19911;-84
2023/08/12 08:28:24;;;;;;;;;;;;;;;25.44;53.85;101723.84;5112090;27;19924;-83
2023/08/12 08:36:55;;;;;;;;;;;;;;;25.46;54.47;101722.06;5136446;27;19966;-84
2023/08/12 08:39:24;;;;;;;;;;;;;;;25.50;53.94;101715.88;5123101;27;20720;-85
2023/08/12 08:41:50;;;;;;;;;;;;;;;25.51;54.00;101712.31;5101813;27;19976;-83
2023/08/12 08:44:15;;;;;;;;;;;;;;;25.44;53.89;101711.34;5107699;28;19920;-84
2023/08/12 08:46:41;;;;;;;;;;;;;;;25.45;54.12;101713.16;5120037;27;19920;-84
2023/08/12 08:49:07;;;;;;;;;;;;;;;25.49;54.06;101706.06;5119091;27;19989;-83
2023/08/12 08:51:33;;;;;;;;;;;;;;;25.48;53.67;101702.47;5103372;27;19916;-84
2023/08/12 08:53:59;;;;;;;;;;;;;;;25.52;53.62;101700.72;5112399;27;19916;-86
2023/08/12 08:56:24;;;;;;;;;;;;;;;25.45;54.04;101698.91;5107877;27;19923;-85
2023/08/12 08:58:50;;;;;;;;;;;;;;;25.44;54.16;101697.97;5118517;27;19919;-86
2023/08/12 09:01:15;;;;;;;;;;;;;;;25.47;54.52;101695.34;5128458;27;19946;-85
2023/08/12 09:03:44;;;;;;;;;;;;;;;25.46;54.12;101696.22;5115681;27;19998;-84
2023/08/12 09:06:10;;;;;;;;;;;;;;;25.46;53.84;101703.34;5103800;27;20422;-84
2023/08/12 09:08:35;;;;;;;;;;;;;;;25.43;53.83;101695.31;5119031;27;19966;-85
2023/08/12 09:11:01;;;;;;;;;;;;;;;25.44;53.73;101689.06;5098626;28;19920;-84
2023/08/12 09:13:27;;;;;;;;;;;;;;;25.46;53.79;101693.53;5111611;28;19911;-83
2023/08/12 09:15:53;;;;;;;;;;;;;;;25.46;53.98;101687.31;5077136;28;19974;-84
2023/08/12 09:18:18;;;;;;;;;;;;;;;25.47;54.10;101687.31;5111288;28;19912;-84
2023/08/12 09:20:44;;;;;;;;;;;;;;;25.50;53.81;101679.31;5076793;28;19923;-84
2023/08/12 09:23:10;;;;;;;;;;;;;;;25.55;54.00;101682.03;5104576;28;19969;-84
2023/08/12 09:25:41;;;;;;;;;;;;;;;25.54;53.64;101682.91;5095696;28;20408;-84
2023/08/12 09:28:07;;;;;;;;;;;;;;;25.51;54.20;101678.44;5102767;28;19973;-85
2023/08/12 09:30:33;;;;;;;;;;;;;;;25.53;54.37;101681.13;5102544;28;19912;-85
2023/08/12 09:33:00;;;;;;;;;;;;;;;25.57;54.30;101682.94;5108634;27;20018;-83
2023/08/12 09:35:30;;;;;;;;;;;;;;;25.56;54.84;101676.69;5100987;28;19924;-84
2023/08/12 09:37:56;;;;;;;;;;;;;;;25.59;54.79;101675.84;5096811;28;19985;-85
2023/08/12 09:40:22;;;;;;;;;;;;;;;25.56;54.66;101678.47;5105088;28;19916;-85
2023/08/12 09:42:47;;;;;;;;;;;;;;;25.55;54.54;101674.91;5106377;28;20639;-84
2023/08/12 09:45:12;;;;;;;;;;;;;;;25.55;54.71;101677.59;5103514;28;19920;-84
2023/08/12 09:47:41;;;;;;;;;;;;;;;25.56;54.72;101668.66;5105900;28;20420;-82
2023/08/12 09:50:07;;;;;;;;;;;;;;;25.57;54.54;101666.91;5097877;28;19919;-84
2023/08/12 09:52:32;;;;;;;;;;;;;;;25.58;54.68;101674.91;5106430;28;19916;-83
2023/08/12 09:54:58;;;;;;;;;;;;;;;25.60;54.58;101666.91;5083276;28;19924;-84
2023/08/12 09:57:23;;;;;;;;;;;;;;;25.59;55.18;101658.00;5110849;28;19916;-84
2023/08/12 09:59:48;;;;;;;;;;;;;;;25.59;54.98;101668.69;5108267;28;19920;-84
2023/08/12 10:02:18;;;;;;;;;;;;;;;25.59;54.77;101666.03;5089294;28;20601;-83
2023/08/12 10:04:44;;;;;;;;;;;;;;;25.62;55.10;101659.78;5094567;28;19947;-83
2023/08/12 10:07:12;;;;;;;;;;;;;;;25.80;57.53;101665.25;5081560;28;19916;-86
2023/08/12 10:09:38;;;;;;;;;;;;;;;25.97;57.82;101665.38;5116746;27;19926;-86
2023/08/12 10:12:05;;;;;;;;;;;;;;;26.15;58.08;101661.88;5096755;27;19916;-90
2023/08/12 10:14:59;;;;;;;;;;;;;;;26.13;57.78;101655.59;5135119;27;19934;-90
2023/08/12 10:17:27;;;;;;;;;;;;;;;25.89;57.71;101655.53;5092705;28;19916;-86
2023/08/12 10:20:00;;;;;;;;;;;;;;;25.80;57.46;101661.66;5098854;28;19942;-86
2023/08/12 10:22:45;;;;;;;;;;;;;;;25.78;57.63;101659.00;5115893;27;19922;-86
2023/08/12 10:25:18;;;;;;;;;;;;;;;25.76;56.93;101650.06;5133550;27;19919;-88
2023/08/12 10:27:44;;;;;;;;;;;;;;;25.73;57.31;101660.72;5128254;27;19939;-83
2023/08/12 10:30:10;;;;;;;;;;;;;;;25.75;57.55;101658.06;5117928;27;20392;-83
2023/08/12 10:32:35;;;;;;;;;;;;;;;25.76;56.90;101654.50;5120128;27;19928;-83
2023/08/12 10:35:01;;;;;;;;;;;;;;;25.77;56.96;101650.94;5098156;27;19931;-83
2023/08/12 10:37:26;;;;;;;;;;;;;;;25.74;56.73;101648.28;5130016;27;19919;-84
2023/08/12 10:39:53;;;;;;;;;;;;;;;25.73;56.56;101652.72;5115731;27;19943;-84
2023/08/12 10:42:37;;;;;;;;;;;;;;;25.75;57.01;101655.41;5128689;27;19958;-84
2023/08/12 10:45:05;;;;;;;;;;;;;;;25.75;56.83;101650.94;5112431;27;19912;-83
2023/08/12 10:47:32;;;;;;;;;;;;;;;25.76;57.30;101660.78;5112503;28;19911;-83
2023/08/12 10:49:57;;;;;;;;;;;;;;;25.74;57.19;101649.16;5112183;28;19912;-84
2023/08/12 10:52:29;;;;;;;;;;;;;;;25.76;57.00;101657.16;5111235;28;20587;-82
2023/08/12 10:54:55;;;;;;;;;;;;;;;25.73;57.50;101659.84;5111870;28;19919;-82
2023/08/12 10:57:41;;;;;;;;;;;;;;;25.74;57.26;101662.53;5113062;27;19927;-84
2023/08/12 11:00:10;;;;;;;;;;;;;;;25.75;57.54;101658.06;5093060;27;19918;-82
2023/08/12 11:02:47;;;;;;;;;;;;;;;25.73;57.49;101658.06;5106065;28;19912;-82
2023/08/12 11:05:13;;;;;;;;;;;;;;;25.74;57.47;101657.19;5127055;27;19911;-83
2023/08/12 11:07:53;;;;;;;;;;;;;;;25.76;58.12;101660.78;5121601;27;20312;-82
2023/08/12 11:10:27;;;;;;;;;;;;;;;25.77;57.79;101653.63;5110111;28;19924;-83
2023/08/12 11:12:56;;;;;;;;;;;;;;;25.77;57.97;101658.97;5093543;28;19988;-82
2023/08/12 11:15:33;;;;;;;;;;;;;;;25.77;57.89;101661.66;5130894;27;19926;-82
2023/08/12 11:17:59;;;;;;;;;;;;;;;25.76;57.83;101655.41;5116028;27;19962;-82
2023/08/12 11:20:29;;;;;;;;;;;;;;;25.78;58.09;101656.31;5110919;28;19915;-82
2023/08/12 11:22:54;;;;;;;;;;;;;;;25.78;58.17;101658.06;5109640;28;20561;-83
2023/08/12 11:25:49;;;;;;;;;;;;;;;25.80;58.09;101651.88;5110122;28;20384;-83
2023/08/12 11:28:25;;;;;;;;;;;;;;;25.81;57.88;101658.09;5111098;28;19916;-83
2023/08/12 11:30:50;;;;;;;;;;;;;;;25.83;58.03;101652.78;5124265;27;19955;-83
2023/08/12 11:33:20;;;;;;;;;;;;;;;25.84;57.97;101642.06;5114064;27;19923;-84
2023/08/12 11:35:45;;;;;;;;;;;;;;;25.87;58.42;101650.13;5098349;28;19966;-82
2023/08/12 11:38:12;;;;;;;;;;;;;;;25.89;57.91;101642.13;5112105;28;19955;-84
2023/08/12 11:40:37;;;;;;;;;;;;;;;25.92;57.88;101648.38;5109713;27;19912;-83
2023/08/12 11:43:09;;;;;;;;;;;;;;;25.92;58.02;101642.13;5133216;27;20353;-83
2023/08/12 11:45:38;;;;;;;;;;;;;;;25.97;57.56;101646.63;5114214;27;19912;-83
2023/08/12 11:48:04;;;;;;;;;;;;;;;25.95;57.77;101650.16;5111313;27;20423;-83
2023/08/12 11:50:30;;;;;;;;;;;;;;;25.96;57.59;101646.63;5114559;27;19926;-83
2023/08/12 11:52:56;;;;;;;;;;;;;;;25.96;57.60;101663.56;5119777;27;19911;-81
2023/08/12 11:55:21;;;;;;;;;;;;;;;25.96;58.00;101655.53;5111292;28;19989;-84
2023/08/12 11:57:47;;;;;;;;;;;;;;;25.98;57.52;101656.44;5094533;28;20365;-82
2023/08/12 12:00:18;;;;;;;;;;;;;;;25.93;58.46;101655.53;5093467;28;19912;-83
2023/08/12 12:02:53;;;;;;;;;;;;;;;25.94;58.02;101651.97;5120517;28;19911;-82
2023/08/12 12:05:20;;;;;;;;;;;;;;;25.99;57.89;101647.53;5111285;28;19939;-82
2023/08/12 12:07:49;;;;;;;;;;;;;;;25.94;58.42;101649.28;5121139;28;19912;-83
2023/08/12 12:10:18;;;;;;;;;;;;;;;25.98;58.18;101651.09;5094861;28;20392;-82
2023/08/12 12:12:44;;;;;;;;;;;;;;;26.04;58.06;101644.00;5110021;28;20342;-83
2023/08/12 12:15:09;;;;;;;;;;;;;;;26.02;58.50;101656.47;5109853;28;20376;-82
2023/08/12 12:17:38;;;;;;;;;;;;;;;25.98;58.33;101650.19;5093226;28;19916;-83
2023/08/12 12:20:06;;;;;;;;;;;;;;;25.98;58.56;101650.19;5111629;28;19911;-84
2023/08/12 12:22:33;;;;;;;;;;;;;;;26.04;57.67;101647.56;5112785;28;19920;-83
2023/08/12 12:25:06;;;;;;;;;;;;;;;26.03;57.77;101643.06;5110679;28;19912;-83
2023/08/12 12:27:31;;;;;;;;;;;;;;;26.00;58.59;101641.28;5110294;28;19916;-82
2023/08/12 12:29:57;;;;;;;;;;;;;;;26.04;58.20;101644.00;5093340;28;19912;-84
2023/08/12 12:32:22;;;;;;;;;;;;;;;26.03;58.38;101634.16;5109922;28;19934;-83
2023/08/12 12:34:47;;;;;;;;;;;;;;;26.04;58.20;101646.66;5110045;27;19919;-83
2023/08/12 12:37:13;;;;;;;;;;;;;;;26.06;58.03;101642.22;5112180;28;19922;-82
2023/08/12 12:39:39;;;;;;;;;;;;;;;26.04;57.79;101639.53;5131817;28;19947;-84
2023/08/12 12:42:05;;;;;;;;;;;;;;;26.04;58.09;101638.63;5115281;28;19912;-84
2023/08/12 12:44:30;;;;;;;;;;;;;;;26.08;58.22;101644.00;5111813;28;19916;-82
2023/08/12 12:46:55;;;;;;;;;;;;;;;26.06;58.73;101634.19;5115014;28;19918;-84
2023/08/12 12:49:21;;;;;;;;;;;;;;;26.04;58.13;101626.13;5115337;28;19916;-84
2023/08/12 12:51:47;;;;;;;;;;;;;;;26.07;58.06;101631.47;5097060;28;19912;-83
2023/08/12 12:54:12;;;;;;;;;;;;;;;26.07;57.77;101623.47;5114709;28;19912;-84